Orbital elements of FENGYUN 1C DEB
| Launched | 9 May 1999 |
| Flight ended | – |
| Launch site | Taiyuan Space Center, PRC |
| Owner | People's Republic of China |
| NORAD ID | 31012 |
| Date fetched |
Epoch osculation |
Inc. [°] |
Ecc. | RA asc node [hr] |
Arg Peri. [°] |
Mean anom [°] |
Mean motion [rev/day] |
Abs. mag |
| Date fetched |
Epoch osculation |
Inc. [°] |
Ecc. | RA asc node [hr] |
Arg Peri. [°] |
Mean anom [°] |
Mean motion [rev/day] |
Abs. mag |
| 2026 May 06 17:57 | 2026 May 05 05:52:00 | 98.9022 | 0.00818 | 2.0781 | 194.3964 | 297.8263 | 14.28003 | – |
| 2026 May 05 17:57 | 2026 May 05 05:52:00 | 98.9022 | 0.00818 | 2.0781 | 194.3964 | 297.8263 | 14.28003 | – |
| 2026 May 04 17:57 | 2026 Apr 30 11:43:40 | 98.9026 | 0.00815 | 1.7550 | 208.2966 | 297.8263 | 14.28003 | – |
| 2026 May 03 17:57 | 2026 Apr 30 11:43:40 | 98.9026 | 0.00815 | 1.7550 | 208.2966 | 297.8263 | 14.28003 | – |
| 2026 May 02 17:57 | 2026 Apr 30 11:43:40 | 98.9026 | 0.00815 | 1.7550 | 208.2966 | 297.8263 | 14.28003 | – |
| 2026 May 01 17:56 | 2026 Apr 30 11:43:40 | 98.9026 | 0.00815 | 1.7550 | 208.2966 | 297.8263 | 14.28003 | – |
| 2026 Apr 30 17:56 | 2026 Apr 30 11:43:40 | 98.9026 | 0.00815 | 1.7550 | 208.2966 | 297.8263 | 14.28003 | – |
| 2026 Apr 29 17:57 | 2026 Apr 24 05:51:10 | 98.9025 | 0.00813 | 1.3307 | 226.5892 | 297.8263 | 14.28003 | – |
| 2026 Apr 28 17:56 | 2026 Apr 24 05:51:10 | 98.9025 | 0.00813 | 1.3307 | 226.5892 | 297.8263 | 14.28003 | – |
| 2026 Apr 27 17:58 | 2026 Apr 24 05:51:10 | 98.9025 | 0.00813 | 1.3307 | 226.5892 | 297.8263 | 14.28003 | – |
| 2026 Apr 26 17:58 | 2026 Apr 24 05:51:10 | 98.9025 | 0.00813 | 1.3307 | 226.5892 | 297.8263 | 14.28003 | – |
| 2026 Apr 25 17:58 | 2026 Apr 24 05:51:10 | 98.9025 | 0.00813 | 1.3307 | 226.5892 | 297.8263 | 14.28003 | – |
| 2026 Apr 24 17:59 | 2026 Apr 24 05:51:10 | 98.9025 | 0.00813 | 1.3307 | 226.5892 | 297.8263 | 14.28003 | – |
| 2026 Apr 23 17:57 | 2026 Apr 18 16:38:50 | 98.9034 | 0.00811 | 0.9535 | 242.8946 | 297.8263 | 14.28003 | – |
| 2026 Apr 22 17:57 | 2026 Apr 18 16:38:50 | 98.9034 | 0.00811 | 0.9535 | 242.8946 | 297.8263 | 14.28003 | – |
| 2026 Apr 21 17:57 | 2026 Apr 18 16:38:50 | 98.9034 | 0.00811 | 0.9535 | 242.8946 | 297.8263 | 14.28003 | – |
| 2026 Apr 20 17:57 | 2026 Apr 18 16:38:50 | 98.9034 | 0.00811 | 0.9535 | 242.8946 | 297.8263 | 14.28003 | – |
| 2026 Apr 19 17:58 | 2026 Apr 18 16:38:50 | 98.9034 | 0.00811 | 0.9535 | 242.8946 | 297.8263 | 14.28003 | – |
| 2026 Apr 18 17:56 | 2026 Apr 13 05:49:08 | 98.9034 | 0.00811 | 0.5831 | 258.9258 | 297.8263 | 14.28003 | – |
| 2026 Apr 16 17:57 | 2026 Apr 13 05:49:08 | 98.9034 | 0.00811 | 0.5831 | 258.9258 | 297.8263 | 14.28003 | – |
| 2026 Apr 14 17:57 | 2026 Apr 13 05:49:08 | 98.9034 | 0.00811 | 0.5831 | 258.9258 | 297.8263 | 14.28003 | – |
| 2026 Apr 13 17:57 | 2026 Apr 13 05:49:08 | 98.9034 | 0.00811 | 0.5831 | 258.9258 | 297.8263 | 14.28003 | – |
| 2026 Apr 12 17:57 | 2026 Apr 08 04:51:43 | 98.9036 | 0.00811 | 0.2407 | 273.7553 | 297.8263 | 14.28003 | – |
| 2026 Apr 11 17:57 | 2026 Apr 08 04:51:43 | 98.9036 | 0.00811 | 0.2407 | 273.7553 | 297.8263 | 14.28003 | – |
| 2026 Apr 10 17:58 | 2026 Apr 08 04:51:43 | 98.9036 | 0.00811 | 0.2407 | 273.7553 | 297.8263 | 14.28003 | – |
| 2026 Apr 09 18:01 | 2026 Apr 08 04:51:43 | 98.9036 | 0.00811 | 0.2407 | 273.7553 | 297.8263 | 14.28003 | – |